Ottoman Nobility — TCDA2 — position and weather

sailwx.info

Track history (hours):
 
Tides and Currents Weather Stations Pressure Air Temp Water Temp Dewpoint Dewpoint Depression Visibility Wind Speed Wind Dir Waves Ship Positions

Ottoman Nobility

Last reported at 2016-Jun-28 10:05 UTC. Time now 2016-Jun-29 12:51 UTC.
Position N 15°07' W 018°20'.

; draft 8.6 m.

Type: Ship. MMSI: 271000773.

Date/timePositionNaut miles runAvg speedWind from/ knotsBaromVisibWave heightAir tempDewpointWater temp
2016-Jun-28 10:05N 15°07' W 018°20'5715.4
2016-Jun-28 06:23N 16°04' W 018°20'2915.9
2016-Jun-28 04:33N 16°33' W 018°20'1615.7
2016-Jun-28 03:33N 16°48' W 018°20'1715.9
2016-Jun-28 02:28N 17°06' W 018°20'68915.3
2016-Jun-26 05:23N 28°10' W 014°60'53615.3
2016-Jun-24 18:17N 34°39' W 007°49'1115.3
2016-Jun-24 17:33N 34°47' W 007°40'1515.2
2016-Jun-24 16:34N 34°58' W 007°27'11414.2
2016-Jun-24 08:34N 35°59' W 005°29'9 2.2
2016-Jun-24 04:31N 36°07' W 005°24'0 0.0
2016-Jun-24 03:33N 36°07' W 005°24'0 0.2
2016-Jun-24 02:22N 36°07' W 005°25'0 0.0
2016-Jun-24 01:26N 36°07' W 005°25'0 0.0
2016-Jun-24 00:29N 36°07' W 005°25'0 0.0
2016-Jun-23 23:33N 36°07' W 005°25'0 0.0
2016-Jun-23 19:33N 36°07' W 005°25'0 0.2
2016-Jun-23 18:32N 36°07' W 005°24'0 0.0
2016-Jun-23 15:16N 36°07' W 005°24'3 4.1
2016-Jun-23 14:32N 36°10' W 005°25'0 0.1
2016-Jun-23 12:19N 36°10' W 005°25'0 0.0
2016-Jun-23 11:29N 36°10' W 005°25'0 0.1
2016-Jun-23 10:32N 36°10' W 005°25'0 0.0
2016-Jun-23 07:31N 36°10' W 005°25'0 0.1
2016-Jun-23 05:25N 36°10' W 005°25'0 0.0
2016-Jun-23 04:31N 36°10' W 005°25'0 0.2
2016-Jun-23 03:32N 36°10' W 005°25'0 0.2
2016-Jun-23 02:31N 36°10' W 005°25'0 0.2
2016-Jun-23 01:23N 36°10' W 005°25'0 0.0
2016-Jun-23 00:32N 36°10' W 005°25'0 0.0
2016-Jun-22 23:32N 36°10' W 005°25'0 0.0
2016-Jun-22 22:29N 36°10' W 005°25'0 0.1
2016-Jun-22 21:33N 36°10' W 005°25'0 0.1
2016-Jun-22 19:25N 36°10' W 005°25'0 0.0
2016-Jun-22 17:31N 36°10' W 005°25'0 0.3
2016-Jun-22 16:21N 36°10' W 005°25'0 0.0
2016-Jun-22 09:32N 36°10' W 005°25'0 0.1
2016-Jun-22 08:32N 36°10' W 005°25'0 0.2
2016-Jun-22 07:32N 36°10' W 005°25'2 2.1
2016-Jun-22 06:33N 36°08' W 005°24'5 4.5
2016-Jun-22 05:33N 36°05' W 005°20'3 3.1
2016-Jun-22 04:33N 36°04' W 005°16'1 1.2
2016-Jun-22 03:33N 36°04' W 005°17'1 1.1
2016-Jun-22 02:33N 36°05' W 005°17'1 1.3
2016-Jun-22 01:33N 36°05' W 005°15'0 0.4
2016-Jun-22 00:33N 36°05' W 005°16'1 1.2
2016-Jun-21 23:33N 36°04' W 005°15'12212.2
2016-Jun-21 13:33N 36°22' W 002°45'1312.2
2016-Jun-21 12:30N 36°24' W 002°29'1212.2
2016-Jun-21 11:32N 36°26' W 002°14'11612.7
2016-Jun-21 02:24N 36°47' E 000°08'1214.3
2016-Jun-21 01:33N 36°49' E 000°23'1614.1
2016-Jun-21 00:27N 36°52' E 000°42'3113.4
2016-Jun-20 22:09N 36°59' E 001°19'56912.4
2016-Jun-19 00:26N 36°46' E 013°10'1212.4
2016-Jun-18 23:26N 36°42' E 013°24'1112.3
2016-Jun-18 22:33N 36°38' E 013°37'1212.5
2016-Jun-18 21:33N 36°34' E 013°52'1312.7
2016-Jun-18 20:33N 36°30' E 014°07'1312.7
2016-Jun-18 19:33N 36°26' E 014°22'1313.2
2016-Jun-18 18:34N 36°23' E 014°38'1313.1
2016-Jun-18 17:34N 36°19' E 014°53'1312.8
2016-Jun-18 16:33N 36°15' E 015°09'7912.7
2016-Jun-18 10:22N 35°51' E 016°41'  
Track history (hours):
 
Tides and Currents Weather Stations Pressure Air Temp Water Temp Dewpoint Dewpoint Depression Visibility Wind Speed Wind Dir Waves Ship Positions

Ottoman Nobility

Last reported at 2016-Jun-28 10:05 UTC. Time now 2016-Jun-29 12:51 UTC.
Position N 15°07' W 018°20'.

; draft 8.6 m.

Type: Ship. MMSI: 271000773.

Date/timePositionNaut miles runAvg speedWind from/ knotsBaromVisibWave heightAir tempDewpointWater temp
2016-Jun-28 10:05N 15°07' W 018°20'5715.4
2016-Jun-28 06:23N 16°04' W 018°20'2915.9
2016-Jun-28 04:33N 16°33' W 018°20'1615.7
2016-Jun-28 03:33N 16°48' W 018°20'1715.9
2016-Jun-28 02:28N 17°06' W 018°20'68915.3
2016-Jun-26 05:23N 28°10' W 014°60'53615.3
2016-Jun-24 18:17N 34°39' W 007°49'1115.3
2016-Jun-24 17:33N 34°47' W 007°40'1515.2
2016-Jun-24 16:34N 34°58' W 007°27'11414.2
2016-Jun-24 08:34N 35°59' W 005°29'9 2.2
2016-Jun-24 04:31N 36°07' W 005°24'0 0.0
2016-Jun-24 03:33N 36°07' W 005°24'0 0.2
2016-Jun-24 02:22N 36°07' W 005°25'0 0.0
2016-Jun-24 01:26N 36°07' W 005°25'0 0.0
2016-Jun-24 00:29N 36°07' W 005°25'0 0.0
2016-Jun-23 23:33N 36°07' W 005°25'0 0.0
2016-Jun-23 19:33N 36°07' W 005°25'0 0.2
2016-Jun-23 18:32N 36°07' W 005°24'0 0.0
2016-Jun-23 15:16N 36°07' W 005°24'3 4.1
2016-Jun-23 14:32N 36°10' W 005°25'0 0.1
2016-Jun-23 12:19N 36°10' W 005°25'0 0.0
2016-Jun-23 11:29N 36°10' W 005°25'0 0.1
2016-Jun-23 10:32N 36°10' W 005°25'0 0.0
2016-Jun-23 07:31N 36°10' W 005°25'0 0.1
2016-Jun-23 05:25N 36°10' W 005°25'0 0.0
2016-Jun-23 04:31N 36°10' W 005°25'0 0.2
2016-Jun-23 03:32N 36°10' W 005°25'0 0.2
2016-Jun-23 02:31N 36°10' W 005°25'0 0.2
2016-Jun-23 01:23N 36°10' W 005°25'0 0.0
2016-Jun-23 00:32N 36°10' W 005°25'0 0.0
2016-Jun-22 23:32N 36°10' W 005°25'0 0.0
2016-Jun-22 22:29N 36°10' W 005°25'0 0.1
2016-Jun-22 21:33N 36°10' W 005°25'0 0.1
2016-Jun-22 19:25N 36°10' W 005°25'0 0.0
2016-Jun-22 17:31N 36°10' W 005°25'0 0.3
2016-Jun-22 16:21N 36°10' W 005°25'0 0.0
2016-Jun-22 09:32N 36°10' W 005°25'0 0.1
2016-Jun-22 08:32N 36°10' W 005°25'0 0.2
2016-Jun-22 07:32N 36°10' W 005°25'2 2.1
2016-Jun-22 06:33N 36°08' W 005°24'5 4.5
2016-Jun-22 05:33N 36°05' W 005°20'3 3.1
2016-Jun-22 04:33N 36°04' W 005°16'1 1.2
2016-Jun-22 03:33N 36°04' W 005°17'1 1.1
2016-Jun-22 02:33N 36°05' W 005°17'1 1.3
2016-Jun-22 01:33N 36°05' W 005°15'0 0.4
2016-Jun-22 00:33N 36°05' W 005°16'1 1.2
2016-Jun-21 23:33N 36°04' W 005°15'12212.2
2016-Jun-21 13:33N 36°22' W 002°45'1312.2
2016-Jun-21 12:30N 36°24' W 002°29'1212.2
2016-Jun-21 11:32N 36°26' W 002°14'11612.7
2016-Jun-21 02:24N 36°47' E 000°08'1214.3
2016-Jun-21 01:33N 36°49' E 000°23'1614.1
2016-Jun-21 00:27N 36°52' E 000°42'3113.4
2016-Jun-20 22:09N 36°59' E 001°19'56912.4
2016-Jun-19 00:26N 36°46' E 013°10'1212.4
2016-Jun-18 23:26N 36°42' E 013°24'1112.3
2016-Jun-18 22:33N 36°38' E 013°37'1212.5
2016-Jun-18 21:33N 36°34' E 013°52'1312.7
2016-Jun-18 20:33N 36°30' E 014°07'1312.7
2016-Jun-18 19:33N 36°26' E 014°22'1313.2
2016-Jun-18 18:34N 36°23' E 014°38'1313.1
2016-Jun-18 17:34N 36°19' E 014°53'1312.8
2016-Jun-18 16:33N 36°15' E 015°09'7912.7
2016-Jun-18 10:22N 35°51' E 016°41'  

Dump ship's entire track history